CheckWX is a tool to help pilots better visualize weather data.  It is not intended as a substitute for an official pre-flight weather briefing.

03:22:14 UTC

KCHO METAR
Charlottesville-Albemarle Airport
Charlottesville, Virginia, USA
Current

29 mins ago

KCHO 230253Z 19007KT 10SM CLR 24/17 A3005 RMK AO2 SLP167 T02440172 50000
Observed
Sep-23 @ 02:53 UTC
Wind
  • 190° at 7 KTS
Visibility
10 SM
Flight Rules
VFR
Cloud Levels
  • Clear skies
Temperature
24°C / 75°F
Dewpoint
17°C / 63°F
Humidity
65%
Altimeter
30.05" Hg
Pressure
1017.62 hPa
Previous

1 hour ago

KCHO 230153Z 21004KT 10SM CLR 26/18 A3005 RMK AO2 SLP168 T02560178
Observed
Sep-23 @ 01:53 UTC
Wind
  • 210° at 4 KTS
Visibility
10 SM
Flight Rules
VFR
Cloud Levels
  • Clear skies
Temperature
26°C / 79°F
Dewpoint
18°C / 64°F
Humidity
61%
Altimeter
30.05" Hg
Pressure
1017.62 hPa
Previous

2 hours ago

KCHO 230053Z 02003KT 10SM CLR 24/18 A3005 RMK AO2 SLP168 T02390183
Observed
Sep-23 @ 00:53 UTC
Wind
  • 020° at 3 KTS
Visibility
10 SM
Flight Rules
VFR
Cloud Levels
  • Clear skies
Temperature
24°C / 75°F
Dewpoint
18°C / 64°F
Humidity
69%
Altimeter
30.05" Hg
Pressure
1017.62 hPa